Dades meteomassalio
Diari Summary for Diciembre 21, 2017 Units:  Metric    English   Both
« Previous Day
Next Day »
Diari Semanal Mensual Anual Personalitzat
  Maxima: Minima: Mijana:
Temperatura: -17.8 °C -3.3 °C 3.6 °C
Rosada: -17.8 °C -5.9 °C -0.4 °C
Humitat: Humidity % 61 % 76 %
Velocitat del vent: 0 km/h 0 km/h 5.5 km/h
Racha vent: 0 km/h - -
Vent:- - West
Pressio: 0 hPa 1037.5 hPa -
Pluja: 0 mm    
Historical Graphs
 
 
Tabular Data for Diciembre 21, 2017
Time Temperature Dew Point Pressure Wind Wind Speed Wind Gust Humidity Rainfall Rate (Hourly) solar Conditions
-17.8 °C -17.8 °C 0 hPa Calm     Humidity % 0 mm SolarRadiationWatts/m^2 W/m2 Conditions
00:02 -1.1 °C -4.8 °C 1037.8 hPa Calm     76 % 0 mm 0.0 W/m2 CLR
00:07 -1.1 °C -4.6 °C 1037.8 hPa Calm     77 % 0 mm 0.0 W/m2 CLR
00:08 -1.1 °C -4.6 °C 1037.8 hPa Calm     77 % 0 mm 0.0 W/m2 CLR
00:10 -1.1 °C -4.6 °C 1037.8 hPa Calm     77 % 0 mm 0.0 W/m2 CLR
00:15 -1.1 °C -4.8 °C 1037.8 hPa Calm     76 % 0 mm 0.0 W/m2 CLR
00:16 -1.1 °C -4.8 °C 1037.8 hPa Calm     76 % 0 mm 0.0 W/m2 CLR
00:21 -1.7 °C -5.2 °C 1037.8 hPa Calm     77 % 0 mm 0.0 W/m2 CLR
00:22 -1.7 °C -5.3 °C 1037.8 hPa Calm     76 % 0 mm 0.0 W/m2 CLR
00:23 -1.7 °C -5.5 °C 1037.8 hPa Calm     75 % 0 mm 0.0 W/m2 CLR
00:28 -1.7 °C -5.3 °C 1037.5 hPa Calm     76 % 0 mm 0.0 W/m2 CLR
00:29 -1.7 °C -5.3 °C 1037.5 hPa Calm     76 % 0 mm 0.0 W/m2 CLR
00:34 -1.7 °C -4.7 °C 1037.5 hPa Calm     80 % 0 mm 0.0 W/m2 CLR
00:35 -1.7 °C -4.2 °C 1037.5 hPa Calm     83 % 0 mm 0.0 W/m2 CLR
00:40 -1.7 °C -4.5 °C 1037.5 hPa WNW 9.3 km/h 9.3 km/h 81 % 0 mm 0.0 W/m2 CLR
00:42 -1.7 °C -4.5 °C 1037.5 hPa Calm     81 % 0 mm 0.0 W/m2 CLR
00:45 -1.7 °C -4.7 °C 1037.8 hPa West 7.4 km/h 7.4 km/h 80 % 0 mm 0.0 W/m2 CLR
00:49 -1.7 °C -4.8 °C 1037.8 hPa Calm     79 % 0 mm 0.0 W/m2 CLR
00:50 -1.7 °C -4.8 °C 1037.8 hPa Calm     79 % 0 mm 0.0 W/m2 CLR
00:55 -1.7 °C -5.2 °C 1037.8 hPa Calm     77 % 0 mm 0.0 W/m2 CLR
00:56 -1.7 °C -5 °C 1037.8 hPa Calm     78 % 0 mm 0.0 W/m2 CLR
01:01 -1.7 °C -5.3 °C 1037.8 hPa Calm     76 % 0 mm 0.0 W/m2 CLR
01:06 -1.7 °C -5.5 °C 1037.8 hPa Calm     75 % 0 mm 0.0 W/m2 CLR
01:07 -1.7 °C -5.5 °C 1037.8 hPa Calm     75 % 0 mm 0.0 W/m2 CLR
01:08 -1.7 °C -5.3 °C 1037.8 hPa Calm     76 % 0 mm 0.0 W/m2 CLR
01:13 -1.1 °C -4.6 °C 1037.8 hPa Calm     77 % 0 mm 0.0 W/m2 CLR
01:18 -1.1 °C -4.1 °C 1037.8 hPa Calm     80 % 0 mm 0.0 W/m2 CLR
01:19 -1.1 °C -4.1 °C 1038.1 hPa Calm     80 % 0 mm 0.0 W/m2 CLR
01:24 -1.1 °C -4.3 °C 1038.1 hPa Calm     79 % 0 mm 0.0 W/m2 CLR
01:31 -1.1 °C -4.8 °C 1037.8 hPa Calm     76 % 0 mm 0.0 W/m2 CLR
01:34 -1.1 °C -4.6 °C 1037.8 hPa Calm     77 % 0 mm 0.0 W/m2 CLR
01:36 -1.1 °C -4.6 °C 1037.8 hPa Calm     77 % 0 mm 0.0 W/m2 CLR
01:41 -1.1 °C -5 °C 1037.8 hPa Calm     75 % 0 mm 0.0 W/m2 CLR
01:42 -1.1 °C -4.8 °C 1037.8 hPa Calm     76 % 0 mm 0.0 W/m2 CLR
01:43 -1.1 °C -4.6 °C 1037.8 hPa Calm     77 % 0 mm 0.0 W/m2 CLR
01:47 -1.7 °C -4.5 °C 1037.8 hPa Calm     81 % 0 mm 0.0 W/m2 CLR
01:48 -1.7 °C -4.7 °C 1037.8 hPa Calm     80 % 0 mm 0.0 W/m2 CLR
01:53 -1.7 °C -4.5 °C 1037.5 hPa Calm     81 % 0 mm 0.0 W/m2 CLR
01:58 -1.7 °C -4.5 °C 1037.8 hPa West 3.7 km/h 3.7 km/h 81 % 0 mm 0.0 W/m2 CLR
01:59 -1.7 °C -4.5 °C 1037.8 hPa West 5.6 km/h 5.6 km/h 81 % 0 mm 0.0 W/m2 CLR
02:01 -1.7 °C -4.7 °C 1037.8 hPa West 5.6 km/h 5.6 km/h 80 % 0 mm 0.0 W/m2 CLR
02:06 -1.7 °C -4.8 °C 1037.8 hPa West 7.4 km/h 7.4 km/h 79 % 0 mm 0.0 W/m2 CLR
02:11 -1.7 °C -5 °C 1037.8 hPa Calm     78 % 0 mm 0.0 W/m2 CLR
02:12 -1.7 °C -5.2 °C 1037.8 hPa Calm     77 % 0 mm 0.0 W/m2 CLR
02:17 -1.7 °C -5.9 °C 1037.8 hPa Calm     73 % 0 mm 0.0 W/m2 CLR
02:19 -1.7 °C -5.9 °C 1038.1 hPa Calm     73 % 0 mm 0.0 W/m2 CLR
02:22 -1.7 °C -5.5 °C 1038.1 hPa Calm     75 % 0 mm 0.0 W/m2 CLR
02:26 -1.7 °C -5.2 °C 1038.1 hPa Calm     77 % 0 mm 0.0 W/m2 CLR
02:28 -1.7 °C -5.2 °C 1038.1 hPa Calm     77 % 0 mm 0.0 W/m2 CLR
02:32 -1.7 °C -4.7 °C 1038.1 hPa Calm     80 % 0 mm 0.0 W/m2 CLR
02:36 -1.7 °C -4.7 °C 1038.1 hPa Calm     80 % 0 mm 0.0 W/m2 CLR
02:39 -2.2 °C -5.2 °C 1038.1 hPa Calm     80 % 0 mm 0.0 W/m2 CLR
02:41 -2.2 °C -5.2 °C 1038.1 hPa Calm     80 % 0 mm 0.0 W/m2 CLR
02:46 -2.2 °C -5.4 °C 1038.1 hPa Calm     79 % 0 mm 0.0 W/m2 CLR
02:47 -2.2 °C -5.4 °C 1038.1 hPa Calm     79 % 0 mm 0.0 W/m2 CLR
02:52 -2.2 °C -5.6 °C 1038.1 hPa Calm     78 % 0 mm 0.0 W/m2 CLR
02:53 -2.2 °C -5.6 °C 1038.1 hPa Calm     78 % 0 mm 0.0 W/m2 CLR
02:55 -2.2 °C -5.6 °C 1038.1 hPa Calm     78 % 0 mm 0.0 W/m2 CLR
02:58 -2.2 °C -5.6 °C 1038.1 hPa Calm     78 % 0 mm 0.0 W/m2 CLR
03:01 -2.2 °C -5.6 °C 1038.1 hPa Calm     78 % 0 mm 0.0 W/m2 CLR
03:05 -2.2 °C -5.4 °C 1038.1 hPa Calm     79 % 0 mm 0.0 W/m2 CLR
03:10 -2.2 °C -5.2 °C 1038.1 hPa Calm     80 % 0 mm 0.0 W/m2 CLR
03:12 -2.2 °C -5.2 °C 1038.1 hPa Calm     80 % 0 mm 0.0 W/m2 CLR
03:16 -2.2 °C -5.1 °C 1038.1 hPa Calm     81 % 0 mm 0.0 W/m2 CLR
03:17 -2.2 °C -5.1 °C 1037.8 hPa WSW 7.4 km/h 7.4 km/h 81 % 0 mm 0.0 W/m2 CLR
03:22 -1.7 °C -4.3 °C 1037.8 hPa SSW 3.7 km/h   82 % 0 mm 0.0 W/m2 CLR
03:23 -2.2 °C -4.9 °C 1037.8 hPa Calm     82 % 0 mm 0.0 W/m2 CLR
03:28 -1.7 °C -4.5 °C 1038.1 hPa East 7.4 km/h 7.4 km/h 81 % 0 mm 0.0 W/m2 CLR
03:29 -1.7 °C -4.5 °C 1038.1 hPa East 5.6 km/h 5.6 km/h 81 % 0 mm 0.0 W/m2 CLR
03:34 -1.7 °C -4.2 °C 1038.1 hPa East 3.7 km/h   83 % 0 mm 0.0 W/m2 CLR
03:35 -1.1 °C -3.6 °C 1038.1 hPa Calm     83 % 0 mm 0.0 W/m2 CLR
03:40 -1.7 °C -4.2 °C 1038.1 hPa Calm     83 % 0 mm 0.0 W/m2 CLR
03:43 -1.7 °C -4.3 °C 1038.1 hPa Calm     82 % 0 mm 0.0 W/m2 CLR
03:48 -1.7 °C -4 °C 1038.1 hPa Calm     84 % 0 mm 0.0 W/m2 CLR
03:49 -1.7 °C -4 °C 1038.1 hPa Calm     84 % 0 mm 0.0 W/m2 CLR
03:54 -1.7 °C -4.3 °C 1037.8 hPa Calm     82 % 0 mm 0.0 W/m2 CLR
03:59 -2.2 °C -4.7 °C 1038.1 hPa Calm     83 % 0 mm 0.0 W/m2 CLR
04:03 -2.2 °C -4.9 °C 1038.1 hPa East 6.4 km/h 6.4 km/h 82 % 0 mm 0.0 W/m2 CLR
04:07 -2.2 °C -4.9 °C 1038.1 hPa Calm     82 % 0 mm 0.0 W/m2 CLR
04:08 -2.2 °C -4.9 °C 1038.1 hPa Calm     82 % 0 mm 0.0 W/m2 CLR
04:13 -1.7 °C -4.3 °C 1038.1 hPa Calm     82 % 0 mm 0.0 W/m2 CLR
04:18 -1.1 °C -3.6 °C 1038.1 hPa Calm     83 % 0 mm 0.0 W/m2 CLR
04:23 -1.7 °C -4.2 °C 1038.1 hPa Calm     83 % 0 mm 0.0 W/m2 CLR
04:24 -1.7 °C -4.2 °C 1038.1 hPa Calm     83 % 0 mm 0.0 W/m2 CLR
04:29 -1.7 °C -4 °C 1038.1 hPa Calm     84 % 0 mm 0.0 W/m2 CLR
04:33 -1.7 °C -4 °C 1038.1 hPa Calm     84 % 0 mm 0.0 W/m2 CLR
04:38 -2.2 °C -4.6 °C 1038.1 hPa Calm     84 % 0 mm 0.0 W/m2 CLR
04:41 -2.2 °C -4.6 °C 1038.1 hPa Calm     84 % 0 mm 0.0 W/m2 CLR
04:44 -2.2 °C -4.4 °C 1038.1 hPa Calm     85 % 0 mm 0.0 W/m2 CLR
04:49 -2.2 °C -4.4 °C 1038.1 hPa Calm     85 % 0 mm 0.0 W/m2 CLR
04:52 -2.2 °C -4.4 °C 1038.1 hPa Calm     85 % 0 mm 0.0 W/m2 CLR
04:55 -2.2 °C -4.4 °C 1038.1 hPa Calm   0.5 km/h 85 % 0 mm 0.0 W/m2 CLR
05:00 -2.2 °C -4.2 °C 1038.1 hPa NW 3.2 km/h 3.2 km/h 86 % 0 mm 0.0 W/m2 CLR
05:01 -2.2 °C -4.2 °C 1037.8 hPa WNW 5.6 km/h 5.6 km/h 86 % 0 mm 0.0 W/m2 CLR
05:06 -2.8 °C -4.2 °C 1037.8 hPa WNW 16.7 km/h 16.7 km/h 90 % 0 mm 0.0 W/m2 CLR
05:09 -2.8 °C -4.5 °C 1037.8 hPa WNW 13 km/h 13 km/h 88 % 0 mm 0.0 W/m2 CLR
05:12 -2.8 °C -4.9 °C 1037.8 hPa NW 16.7 km/h 16.7 km/h 85 % 0 mm 0.0 W/m2 CLR
05:19 -2.8 °C -5.3 °C 1038.1 hPa West 9.7 km/h 9.7 km/h 83 % 0 mm 0.0 W/m2 CLR
05:22 -2.8 °C -5.3 °C 1038.1 hPa WNW 7.4 km/h 7.4 km/h 83 % 0 mm 0.0 W/m2 CLR
05:25 -2.8 °C -5.7 °C 1038.1 hPa Calm     80 % 0 mm 0.0 W/m2 CLR
05:29 -2.8 °C -5.9 °C 1038.1 hPa Calm     79 % 0 mm 0.0 W/m2 CLR
05:30 -2.8 °C -5.9 °C 1037.8 hPa Calm     79 % 0 mm 0.0 W/m2 CLR
05:35 -2.8 °C -5.9 °C 1037.8 hPa Calm     79 % 0 mm 0.0 W/m2 CLR
05:36 -2.8 °C -5.7 °C 1037.8 hPa Calm     80 % 0 mm 0.0 W/m2 CLR
05:41 -2.2 °C -5.4 °C 1037.8 hPa Calm     79 % 0 mm 0.0 W/m2 CLR
05:43 -2.2 °C -5.4 °C 1037.8 hPa Calm     79 % 0 mm 0.0 W/m2 CLR
05:44 -2.2 °C -5.4 °C 1037.8 hPa Calm     79 % 0 mm 0.0 W/m2 CLR
05:48 -2.2 °C -5.6 °C 1037.8 hPa Calm     78 % 0 mm 0.0 W/m2 CLR
05:50 -2.2 °C -5.6 °C 1038.1 hPa Calm     78 % 0 mm 0.0 W/m2 CLR
05:53 -2.2 °C -5.4 °C 1038.1 hPa Calm     79 % 0 mm 0.0 W/m2 CLR
05:58 -2.8 °C -5.3 °C 1038.1 hPa Calm     83 % 0 mm 0.0 W/m2 CLR
06:03 -2.8 °C -5.1 °C 1038.1 hPa Calm     84 % 0 mm 0.0 W/m2 CLR
06:05 -2.8 °C -5.1 °C 1038.1 hPa Calm     84 % 0 mm 0.0 W/m2 CLR
06:10 -2.8 °C -4.9 °C 1038.1 hPa Calm     85 % 0 mm 0.0 W/m2 CLR
06:12 -2.8 °C -4.8 °C 1038.1 hPa Calm     86 % 0 mm 0.0 W/m2 CLR
06:15 -2.8 °C -4.8 °C 1038.1 hPa Calm     86 % 0 mm 0.0 W/m2 CLR
06:19 -2.8 °C -4.8 °C 1038.1 hPa Calm     86 % 0 mm 0.0 W/m2 CLR
06:21 -2.8 °C -4.8 °C 1038.1 hPa Calm     86 % 0 mm 0.0 W/m2 CLR
06:24 -2.8 °C -4.8 °C 1038.1 hPa WNW 1.6 km/h   86 % 0 mm 0.0 W/m2 CLR
06:26 -2.8 °C -4.9 °C 1038.1 hPa WNW 3.7 km/h 3.7 km/h 85 % 0 mm 0.0 W/m2 CLR
06:31 -2.8 °C -4.9 °C 1038.1 hPa West 3.7 km/h 3.7 km/h 85 % 0 mm 0.0 W/m2 CLR
06:35 -2.8 °C -4.9 °C 1038.1 hPa Calm     85 % 0 mm 0.0 W/m2 CLR
06:36 -2.8 °C -4.8 °C 1038.1 hPa Calm     86 % 0 mm 0.0 W/m2 CLR
06:41 -2.8 °C -4.8 °C 1038.1 hPa Calm     86 % 0 mm 0.0 W/m2 CLR
06:42 -2.8 °C -4.8 °C 1038.1 hPa Calm     86 % 0 mm 0.0 W/m2 CLR
06:46 -2.8 °C -4.8 °C 1038.1 hPa Calm     86 % 0 mm 0.0 W/m2 CLR
06:48 -2.8 °C -4.8 °C 1038.1 hPa Calm     86 % 0 mm 0.0 W/m2 CLR
06:53 -3.3 °C -5.3 °C 1038.5 hPa Calm     86 % 0 mm 0.0 W/m2 CLR
06:58 -3.3 °C -5.2 °C 1038.5 hPa Calm     87 % 0 mm 0.0 W/m2 CLR
06:59 -3.3 °C -5.2 °C 1038.5 hPa Calm     87 % 0 mm 0.0 W/m2 CLR
07:01 -3.3 °C -5.2 °C 1038.5 hPa Calm     87 % 0 mm 0.0 W/m2 CLR
07:04 -3.3 °C -5.2 °C 1038.1 hPa Calm     87 % 0 mm 0.0 W/m2 CLR
07:08 -3.3 °C -5.1 °C 1038.5 hPa Calm     88 % 0 mm 0.0 W/m2 CLR
07:10 -3.3 °C -5.1 °C 1038.1 hPa Calm     88 % 0 mm 0.0 W/m2 CLR
07:15 -3.3 °C -5.3 °C 1038.1 hPa Calm     86 % 0 mm 0.0 W/m2 CLR
07:16 -3.3 °C -5.3 °C 1038.5 hPa Calm     86 % 0 mm 0.0 W/m2 CLR
07:21 -3.3 °C -5.1 °C 1038.5 hPa Calm     88 % 0 mm 0.0 W/m2 CLR
07:23 -3.3 °C -5.1 °C 1038.5 hPa Calm     88 % 0 mm 0.0 W/m2 CLR
07:26 -3.3 °C -5.1 °C 1038.5 hPa Calm     88 % 0 mm 0.0 W/m2 CLR
07:30 -3.3 °C -5.2 °C 1038.5 hPa Calm     87 % 0 mm 0.0 W/m2 CLR
07:32 -3.3 °C -5.1 °C 1038.5 hPa Calm     88 % 0 mm 0.0 W/m2 CLR
07:37 -3.3 °C -4.9 °C 1038.8 hPa Calm     89 % 0 mm 0.0 W/m2 CLR
07:42 -3.3 °C -4.9 °C 1038.5 hPa Calm     89 % 0 mm 0.0 W/m2 CLR
07:44 -3.3 °C -4.9 °C 1038.8 hPa Calm     89 % 0 mm 0.0 W/m2 CLR
07:46 -3.3 °C -4.9 °C 1038.8 hPa Calm     89 % 0 mm 0.0 W/m2 CLR
07:50 -3.3 °C -5.2 °C 1038.8 hPa Calm     87 % 0 mm 0.0 W/m2 CLR
07:55 -2.8 °C -4.7 °C 1038.8 hPa Calm     87 % 0 mm 0.0 W/m2 CLR
07:58 -2.8 °C -4.7 °C 1038.8 hPa Calm     87 % 0 mm 0.0 W/m2 CLR
08:03 -2.8 °C -4.8 °C 1038.8 hPa Calm     86 % 0 mm 0.0 W/m2 CLR
08:09 -2.8 °C -4.3 °C 1038.8 hPa Calm     89 % 0 mm 0.0 W/m2 CLR
08:10 -2.8 °C -4.3 °C 1038.8 hPa Calm     89 % 0 mm 0.0 W/m2 CLR
08:11 -2.8 °C -4.3 °C 1038.8 hPa WNW 5.6 km/h 5.6 km/h 89 % 0 mm 0.0 W/m2 OVC
08:16 -2.8 °C -4.2 °C 1038.8 hPa WNW 6.4 km/h 6.4 km/h 90 % 0 mm 0.0 W/m2 OVC
08:18 -2.8 °C -4.1 °C 1038.8 hPa WNW 5.6 km/h 5.6 km/h 91 % 0 mm 0.0 W/m2 OVC
08:19 -2.8 °C -4.1 °C 1038.8 hPa NW 3.7 km/h 3.7 km/h 91 % 0 mm 0.0 W/m2 OVC
08:24 -2.2 °C -3.5 °C 1038.8 hPa WNW 11.1 km/h 11.1 km/h 91 % 0 mm 5.0 W/m2 OVC
08:26 -2.2 °C -3.7 °C 1039.2 hPa Calm     90 % 0 mm 5.0 W/m2 OVC
08:34 -2.2 °C -4.2 °C 1039.2 hPa WNW 16.1 km/h 16.1 km/h 86 % 0 mm 9.0 W/m2 BKN
08:36 -2.2 °C -4.2 °C 1039.2 hPa NW 16.7 km/h 16.7 km/h 86 % 0 mm 11.0 W/m2 BKN
08:41 -2.2 °C -4.7 °C 1039.2 hPa NW 18.5 km/h 18.5 km/h 83 % 0 mm 12.0 W/m2 BKN
08:46 -2.2 °C -5.1 °C 1039.5 hPa NNW 16.7 km/h 16.7 km/h 81 % 0 mm 14.0 W/m2 BKN
08:50 -2.2 °C -5.1 °C 1039.5 hPa NW 13 km/h 13 km/h 81 % 0 mm 18.0 W/m2 BKN
08:53 -2.2 °C -5.1 °C 1039.5 hPa NW 16.7 km/h 16.7 km/h 81 % 0 mm 21.0 W/m2 BKN
08:59 -1.1 °C -3.9 °C 1039.5 hPa WNW 8 km/h 8 km/h 81 % 0 mm 26.0 W/m2 BKN
09:04 -1.1 °C -4.1 °C 1039.5 hPa NW 9.3 km/h 9.3 km/h 80 % 0 mm 42.0 W/m2 BKN
09:09 -1.1 °C -4.1 °C 1039.5 hPa NNW 3.7 km/h 3.7 km/h 80 % 0 mm 51.0 W/m2 SCT
09:14 -0.6 °C -3.6 °C 1039.5 hPa Calm     80 % 0 mm 58.0 W/m2 SCT
09:16 -0.6 °C -3.6 °C 1039.8 hPa Calm     80 % 0 mm 65.0 W/m2 SCT
09:21 0.6 °C -2.5 °C 1039.8 hPa Calm     80 % 0 mm 79.0 W/m2 FEW
09:23 0.6 °C -2.5 °C 1039.8 hPa Calm     80 % 0 mm 83.0 W/m2 FEW
09:28 0.6 °C -2.7 °C 1039.5 hPa Calm     79 % 0 mm 91.0 W/m2 FEW
09:30 0.6 °C -2.7 °C 1039.5 hPa Calm     79 % 0 mm 84.0 W/m2 FEW
09:34 1.1 °C -2.1 °C 1039.8 hPa Calm     79 % 0 mm 111.0 W/m2 CLR
09:37 1.1 °C -2.1 °C 1039.8 hPa Calm     79 % 0 mm 118.0 W/m2 CLR
09:40 1.1 °C -2.1 °C 1039.8 hPa Calm     79 % 0 mm 127.0 W/m2 CLR
09:45 1.7 °C -1.8 °C 1039.8 hPa Calm     78 % 0 mm 127.0 W/m2 CLR
09:50 2.8 °C -0.8 °C 1039.8 hPa Calm     77 % 0 mm 155.0 W/m2 CLR
09:51 2.8 °C -0.8 °C 1039.8 hPa Calm     77 % 0 mm 158.0 W/m2 CLR
09:56 2.8 °C -1.1 °C 1039.8 hPa Calm     76 % 0 mm 171.0 W/m2 CLR
10:00 2.8 °C -1.1 °C 1039.8 hPa Calm     76 % 0 mm 111.0 W/m2 CLR
10:02 2.8 °C -1.1 °C 1039.8 hPa Calm     76 % 0 mm 144.0 W/m2 CLR
10:06 2.8 °C -1.2 °C 1040.2 hPa Calm     75 % 0 mm 158.0 W/m2 CLR
10:09 2.8 °C -1.2 °C 1040.2 hPa Calm     75 % 0 mm 176.0 W/m2 CLR
10:11 2.8 °C -1.4 °C 1040.2 hPa Calm     74 % 0 mm 181.0 W/m2 CLR
10:16 3.3 °C -0.9 °C 1040.2 hPa Calm     74 % 0 mm 209.0 W/m2 CLR
10:17 3.3 °C -0.9 °C 1040.2 hPa Calm     74 % 0 mm 227.0 W/m2 CLR
10:18 3.9 °C -0.3 °C 1040.2 hPa Calm     74 % 0 mm 229.0 W/m2 CLR
10:23 3.9 °C -0.5 °C 1040.2 hPa Calm     73 % 0 mm 241.0 W/m2 CLR
10:25 5 °C 0.4 °C 1040.2 hPa NW 17.7 km/h 17.7 km/h 72 % 0 mm 248.0 W/m2 CLR
10:29 5.6 °C 0.9 °C 1040.2 hPa NW 18.5 km/h 18.5 km/h 72 % 0 mm 255.0 W/m2 CLR
10:32 6.7 °C 1.8 °C 1040.2 hPa NW 16.7 km/h 16.7 km/h 71 % 0 mm 260.0 W/m2 CLR
10:34 7.2 °C 2.3 °C 1040.2 hPa NNW 5.6 km/h 5.6 km/h 71 % 0 mm 267.0 W/m2 CLR
10:39 7.8 °C 2.7 °C 1040.5 hPa NW 3.2 km/h 3.2 km/h 70 % 0 mm 276.0 W/m2 CLR
10:41 8.3 °C 3.2 °C 1040.5 hPa NNW 16.7 km/h 16.7 km/h 70 % 0 mm 279.0 W/m2 CLR
10:45 8.9 °C 3.5 °C 1040.5 hPa West 16.7 km/h 16.7 km/h 69 % 0 mm 288.0 W/m2 CLR
10:50 9.4 °C 4.1 °C 1040.5 hPa NW 27.8 km/h 27.8 km/h 69 % 0 mm 295.0 W/m2 CLR
10:55 9.4 °C 4.1 °C 1040.5 hPa NW 31.5 km/h 31.5 km/h 69 % 0 mm 304.0 W/m2 CLR
10:57 9.4 °C 4.1 °C 1040.9 hPa NW 20.4 km/h 20.4 km/h 69 % 0 mm 309.0 W/m2 CLR
11:01 9.4 °C 4.1 °C 1040.9 hPa North 20.4 km/h 20.4 km/h 69 % 0 mm 313.0 W/m2 CLR
11:03 9.4 °C 4.1 °C 1040.9 hPa NNW 25.7 km/h 25.7 km/h 69 % 0 mm 316.0 W/m2 CLR
11:07 9.4 °C 4.2 °C 1040.9 hPa NNW 22.2 km/h 22.2 km/h 70 % 0 mm 325.0 W/m2 CLR
11:09 9.4 °C 4.2 °C 1040.9 hPa NW 22.2 km/h 22.2 km/h 70 % 0 mm 327.0 W/m2 CLR
11:12 9.4 °C 4.2 °C 1040.9 hPa NW 18.5 km/h 18.5 km/h 70 % 0 mm 332.0 W/m2 CLR
11:14 9.4 °C 4.2 °C 1040.9 hPa NW 20.4 km/h 20.4 km/h 70 % 0 mm 336.0 W/m2 CLR
11:19 9.4 °C 4.1 °C 1040.5 hPa NW 3.7 km/h 3.7 km/h 69 % 0 mm 343.0 W/m2 CLR
11:20 10 °C 4.8 °C 1040.5 hPa NW 12.9 km/h 12.9 km/h 70 % 0 mm 345.0 W/m2 CLR
11:25 10 °C 4.6 °C 1040.5 hPa NNW 20.4 km/h 20.4 km/h 69 % 0 mm 352.0 W/m2 CLR
11:26 10 °C 4.6 °C 1040.5 hPa WNW 20.4 km/h 20.4 km/h 69 % 0 mm 353.0 W/m2 CLR
11:28 10 °C 4.8 °C 1040.5 hPa NW 16.7 km/h 16.7 km/h 70 % 0 mm 357.0 W/m2 CLR
11:32 10 °C 4.6 °C 1040.5 hPa NNW 25.7 km/h 25.7 km/h 69 % 0 mm 362.0 W/m2 CLR
11:33 10 °C 4.6 °C 1040.5 hPa North 25.7 km/h 25.7 km/h 69 % 0 mm 362.0 W/m2 CLR
11:38 10 °C 4.6 °C 1040.5 hPa WNW 18.5 km/h 18.5 km/h 69 % 0 mm 366.0 W/m2 CLR
11:43 10 °C 4.6 °C 1040.5 hPa NNW 24.1 km/h 24.1 km/h 69 % 0 mm 374.0 W/m2 CLR
11:44 10 °C 4.6 °C 1040.5 hPa NW 24.1 km/h 24.1 km/h 69 % 0 mm 374.0 W/m2 CLR
11:49 10.6 °C 4.9 °C 1040.5 hPa NW 31.5 km/h 31.5 km/h 68 % 0 mm 381.0 W/m2 CLR
11:54 10.6 °C 4.9 °C 1040.5 hPa North 29.6 km/h 29.6 km/h 68 % 0 mm 387.0 W/m2 CLR
11:55 10.6 °C 4.9 °C 1040.2 hPa North 37 km/h 37 km/h 68 % 0 mm 387.0 W/m2 CLR
12:00 10.6 °C 4.9 °C 1040.5 hPa NNW 18.5 km/h 18.5 km/h 68 % 0 mm 392.0 W/m2 CLR
12:01 10.6 °C 4.9 °C 1040.2 hPa NNW 20.9 km/h 20.9 km/h 68 % 0 mm 392.0 W/m2 CLR
12:02 10.6 °C 4.9 °C 1040.2 hPa NW 22.2 km/h 22.2 km/h 68 % 0 mm 394.0 W/m2 CLR
12:07 11.1 °C 5.2 °C 1040.2 hPa NNE 20.4 km/h 20.4 km/h 67 % 0 mm 397.0 W/m2 CLR
12:10 11.1 °C 5.2 °C 1040.2 hPa NNW 14.8 km/h 14.8 km/h 67 % 0 mm 401.0 W/m2 CLR
12:13 11.1 °C 5 °C 1040.2 hPa NNW 19.3 km/h 19.3 km/h 66 % 0 mm 403.0 W/m2 CLR
12:18 11.1 °C 5 °C 1040.2 hPa NW 18.5 km/h 18.5 km/h 66 % 0 mm 406.0 W/m2 CLR
12:19 11.1 °C 5 °C 1040.2 hPa NNW 20.9 km/h 20.9 km/h 66 % 0 mm 309.0 W/m2 CLR
12:20 11.1 °C 5 °C 1040.2 hPa NW 20.4 km/h 20.4 km/h 66 % 0 mm 406.0 W/m2 CLR
12:25 11.1 °C 5 °C 1039.8 hPa NNW 16.7 km/h 16.7 km/h 66 % 0 mm 408.0 W/m2 CLR
12:26 11.1 °C 5 °C 1040.2 hPa NNW 20.4 km/h 20.4 km/h 66 % 0 mm 408.0 W/m2 CLR
12:28 11.1 °C 4.8 °C 1040.2 hPa NW 18.5 km/h 18.5 km/h 65 % 0 mm 411.0 W/m2 CLR
12:31 11.7 °C 5.3 °C 1040.2 hPa NNW 18.5 km/h 18.5 km/h 65 % 0 mm 413.0 W/m2 CLR
12:35 11.7 °C 5.3 °C 1040.2 hPa NW 20.4 km/h 20.4 km/h 65 % 0 mm 415.0 W/m2 CLR
12:36 11.7 °C 5.3 °C 1040.2 hPa NNW 20.4 km/h 20.4 km/h 65 % 0 mm 417.0 W/m2 CLR
12:41 11.7 °C 5.1 °C 1040.2 hPa NNW 25.9 km/h 25.9 km/h 64 % 0 mm 415.0 W/m2 CLR
12:45 11.7 °C 5.1 °C 1039.8 hPa NNW 25.9 km/h 25.9 km/h 64 % 0 mm 417.0 W/m2 CLR
12:47 11.7 °C 5.1 °C 1040.2 hPa NNW 24.1 km/h 24.1 km/h 64 % 0 mm 418.0 W/m2 CLR
12:52 12.2 °C 5.6 °C 1039.8 hPa North 25.9 km/h 25.9 km/h 64 % 0 mm 420.0 W/m2 CLR
12:57 12.2 °C 5.6 °C 1039.8 hPa NNW 20.4 km/h 20.4 km/h 64 % 0 mm 417.0 W/m2 CLR
12:59 12.2 °C 5.6 °C 1039.8 hPa NNW 14.8 km/h 14.8 km/h 64 % 0 mm 417.0 W/m2 CLR
13:04 12.2 °C 5.6 °C 1039.8 hPa NNW 22.5 km/h 22.5 km/h 64 % 0 mm 417.0 W/m2 CLR
13:07 12.2 °C 5.4 °C 1039.8 hPa North 22.5 km/h 22.5 km/h 63 % 0 mm 418.0 W/m2 CLR
13:11 12.2 °C 5.4 °C 1039.8 hPa WNW 18.5 km/h 18.5 km/h 63 % 0 mm 417.0 W/m2 CLR
13:14 12.2 °C 5.4 °C 1039.8 hPa NNW 20.4 km/h 20.4 km/h 63 % 0 mm 415.0 W/m2 CLR
13:17 12.2 °C 5.4 °C 1039.8 hPa NW 14.8 km/h 14.8 km/h 63 % 0 mm 415.0 W/m2 CLR
13:20 12.8 °C 5.9 °C 1039.5 hPa NW 18.5 km/h 18.5 km/h 63 % 0 mm 413.0 W/m2 CLR
13:23 12.8 °C 5.9 °C 1039.5 hPa NNW 20.9 km/h 20.9 km/h 63 % 0 mm 413.0 W/m2 CLR
13:27 12.2 °C 5.4 °C 1039.5 hPa NW 24.1 km/h 24.1 km/h 63 % 0 mm 413.0 W/m2 CLR
13:28 12.2 °C 5.4 °C 1039.5 hPa NNW 24.1 km/h 24.1 km/h 63 % 0 mm 410.0 W/m2 CLR
13:33 12.2 °C 5.4 °C 1039.5 hPa North 18.5 km/h 18.5 km/h 63 % 0 mm 410.0 W/m2 CLR
13:34 12.2 °C 5.4 °C 1039.5 hPa NNW 20.9 km/h 20.9 km/h 63 % 0 mm 408.0 W/m2 CLR
13:39 12.8 °C 5.7 °C 1039.5 hPa NNW 24.1 km/h 24.1 km/h 62 % 0 mm 406.0 W/m2 CLR
13:42 12.8 °C 5.7 °C 1039.5 hPa NW 24.1 km/h 24.1 km/h 62 % 0 mm 404.0 W/m2 CLR
13:44 12.8 °C 5.7 °C 1039.5 hPa NW 24.1 km/h 24.1 km/h 62 % 0 mm 403.0 W/m2 CLR
13:49 12.8 °C 5.7 °C 1039.5 hPa North 18.5 km/h 18.5 km/h 62 % 0 mm 399.0 W/m2 CLR
13:50 12.8 °C 5.7 °C 1039.5 hPa North 19.3 km/h 19.3 km/h 62 % 0 mm 397.0 W/m2 CLR
13:54 12.8 °C 5.7 °C 1039.5 hPa NNW 18.5 km/h 18.5 km/h 62 % 0 mm 394.0 W/m2 CLR
13:56 12.8 °C 5.7 °C 1039.5 hPa NNW 20.9 km/h 20.9 km/h 62 % 0 mm 390.0 W/m2 CLR
14:01 12.8 °C 5.7 °C 1039.2 hPa North 16.7 km/h 16.7 km/h 62 % 0 mm 387.0 W/m2 CLR
14:02 12.8 °C 5.7 °C 1039.5 hPa North 16.7 km/h 16.7 km/h 62 % 0 mm 387.0 W/m2 CLR
14:07 12.8 °C 5.7 °C 1039.5 hPa NNE 16.1 km/h 16.1 km/h 62 % 0 mm 381.0 W/m2 CLR
14:11 12.8 °C 5.4 °C 1039.2 hPa NNE 14.8 km/h 14.8 km/h 61 % 0 mm 378.0 W/m2 CLR
14:12 12.8 °C 5.4 °C 1039.2 hPa ENE 14.8 km/h 14.8 km/h 61 % 0 mm 376.0 W/m2 CLR
14:17 12.8 °C 5.7 °C 1039.2 hPa NW 18.5 km/h 18.5 km/h 62 % 0 mm 371.0 W/m2 CLR
14:18 12.2 °C 5.2 °C 1039.2 hPa North 18.5 km/h 18.5 km/h 62 % 0 mm 369.0 W/m2 CLR
14:23 12.8 °C 5.7 °C 1039.2 hPa NNW 16.7 km/h 16.7 km/h 62 % 0 mm 364.0 W/m2 CLR
14:28 12.8 °C 5.4 °C 1039.2 hPa North 16.1 km/h 16.1 km/h 61 % 0 mm 359.0 W/m2 CLR
14:30 12.8 °C 5.4 °C 1039.2 hPa NW 13 km/h 13 km/h 61 % 0 mm 355.0 W/m2 CLR
14:34 12.8 °C 5.4 °C 1039.2 hPa North 18.5 km/h 18.5 km/h 61 % 0 mm 350.0 W/m2 CLR
14:36 12.8 °C 5.4 °C 1039.2 hPa NNW 24.1 km/h 24.1 km/h 61 % 0 mm 348.0 W/m2 CLR
14:41 12.8 °C 5.4 °C 1039.2 hPa NNW 14.8 km/h 14.8 km/h 61 % 0 mm 339.0 W/m2 CLR
14:42 12.8 °C 5.7 °C 1038.8 hPa North 18.5 km/h 18.5 km/h 62 % 0 mm 338.0 W/m2 CLR
14:47 12.8 °C 5.7 °C 1039.2 hPa NNW 14.8 km/h 14.8 km/h 62 % 0 mm 329.0 W/m2 CLR
14:48 12.8 °C 5.7 °C 1039.2 hPa North 14.8 km/h 14.8 km/h 62 % 0 mm 329.0 W/m2 CLR
14:53 12.8 °C 5.7 °C 1039.2 hPa NNW 16.7 km/h 16.7 km/h 62 % 0 mm 320.0 W/m2 CLR
14:57 12.8 °C 5.7 °C 1039.2 hPa North 16.7 km/h 16.7 km/h 62 % 0 mm 313.0 W/m2 CLR
14:59 12.8 °C 5.7 °C 1039.2 hPa North 17.7 km/h 17.7 km/h 62 % 0 mm 311.0 W/m2 CLR
15:03 12.8 °C 5.7 °C 1039.2 hPa NNE 18.5 km/h 18.5 km/h 62 % 0 mm 304.0 W/m2 CLR
15:09 12.8 °C 5.7 °C 1039.2 hPa NNW 16.7 km/h 16.7 km/h 62 % 0 mm 294.0 W/m2 CLR
15:10 12.8 °C 5.7 °C 1038.8 hPa NNW 16.7 km/h 16.7 km/h 62 % 0 mm 290.0 W/m2 CLR
15:15 12.8 °C 5.7 °C 1039.2 hPa North 12.9 km/h 12.9 km/h 62 % 0 mm 281.0 W/m2 CLR
15:16 12.8 °C 5.7 °C 1039.2 hPa North 13 km/h 13 km/h 62 % 0 mm 281.0 W/m2 CLR
15:21 13.3 °C 5.9 °C 1039.2 hPa NNW 13 km/h 13 km/h 61 % 0 mm 272.0 W/m2 CLR
15:22 13.3 °C 5.9 °C 1039.2 hPa NNW 5.6 km/h   61 % 0 mm 269.0 W/m2 CLR
15:25 13.3 °C 5.9 °C 1039.2 hPa North 14.8 km/h 14.8 km/h 61 % 0 mm 264.0 W/m2 CLR
15:27 12.8 °C 5.4 °C 1039.2 hPa North 16.7 km/h 16.7 km/h 61 % 0 mm 258.0 W/m2 CLR
15:30 13.3 °C 6.2 °C 1039.2 hPa North 14.8 km/h 14.8 km/h 62 % 0 mm 250.0 W/m2 CLR
15:32 12.8 °C 5.7 °C 1039.2 hPa North 16.7 km/h 16.7 km/h 62 % 0 mm 244.0 W/m2 CLR
15:37 12.8 °C 5.7 °C 1039.2 hPa NNE 14.8 km/h 14.8 km/h 62 % 0 mm 232.0 W/m2 CLR
15:42 12.8 °C 5.9 °C 1039.2 hPa North 11.1 km/h 11.1 km/h 63 % 0 mm 218.0 W/m2 CLR
15:44 12.8 °C 5.9 °C 1039.2 hPa NNW 14.8 km/h 14.8 km/h 63 % 0 mm 214.0 W/m2 CLR
15:49 12.8 °C 5.9 °C 1039.2 hPa NW 13 km/h 13 km/h 63 % 0 mm 200.0 W/m2 CLR
15:50 12.8 °C 5.9 °C 1039.2 hPa NW 13 km/h 13 km/h 63 % 0 mm 200.0 W/m2 CLR
15:51 12.8 °C 5.7 °C 1039.2 hPa NW 11.1 km/h 11.1 km/h 62 % 0 mm 199.0 W/m2 CLR
15:56 12.8 °C 5.7 °C 1039.2 hPa NW 14.8 km/h 14.8 km/h 62 % 0 mm 186.0 W/m2 CLR
15:58 12.2 °C 5.2 °C 1039.2 hPa NW 13 km/h 13 km/h 62 % 0 mm 178.0 W/m2 CLR
16:02 12.2 °C 5.2 °C 1039.2 hPa NW 16.7 km/h 16.7 km/h 62 % 0 mm 171.0 W/m2 CLR
16:05 12.2 °C 5.2 °C 1039.2 hPa NNW 13 km/h 13 km/h 62 % 0 mm 160.0 W/m2 CLR
16:08 12.2 °C 5.2 °C 1039.2 hPa NW 11.1 km/h 11.1 km/h 62 % 0 mm 153.0 W/m2 CLR
16:13 12.2 °C 5.2 °C 1039.2 hPa NW 1.6 km/h 1.6 km/h 62 % 0 mm 139.0 W/m2 CLR
16:14 12.2 °C 5.2 °C 1039.2 hPa NW 3.7 km/h 3.7 km/h 62 % 0 mm 137.0 W/m2 CLR
16:19 11.7 °C 4.6 °C 1039.2 hPa NW 11.1 km/h 11.1 km/h 62 % 0 mm 123.0 W/m2 CLR
16:24 11.7 °C 4.6 °C 1039.2 hPa NNW 11.3 km/h 11.3 km/h 62 % 0 mm 109.0 W/m2 CLR
16:26 11.7 °C 4.6 °C 1039.2 hPa NNW 13 km/h 13 km/h 62 % 0 mm 104.0 W/m2 CLR
16:28 11.7 °C 4.6 °C 1039.2 hPa NNW 13 km/h 13 km/h 62 % 0 mm 98.0 W/m2 CLR
16:31 11.7 °C 4.6 °C 1039.2 hPa NNW 7.4 km/h 7.4 km/h 62 % 0 mm 91.0 W/m2 CLR
16:36 11.7 °C 4.6 °C 1039.2 hPa Calm     62 % 0 mm 79.0 W/m2 FEW
16:39 11.7 °C 4.6 °C 1039.2 hPa Calm     62 % 0 mm 74.0 W/m2 FEW
16:41 11.1 °C 4.1 °C 1039.2 hPa Calm     62 % 0 mm 58.0 W/m2 SCT
16:44 11.1 °C 4.1 °C 1039.2 hPa Calm     62 % 0 mm 62.0 W/m2 SCT
16:47 11.1 °C 4.1 °C 1039.2 hPa Calm     62 % 0 mm 47.0 W/m2 SCT
16:50 11.1 °C 4.1 °C 1039.2 hPa Calm     62 % 0 mm 46.0 W/m2 SCT
16:53 10.6 °C 3.6 °C 1039.2 hPa Calm     62 % 0 mm 37.0 W/m2 BKN
16:58 10 °C 3.1 °C 1039.2 hPa Calm     62 % 0 mm 32.0 W/m2 BKN
16:59 10 °C 3.1 °C 1039.2 hPa Calm     62 % 0 mm 30.0 W/m2 BKN
17:00 10 °C 3.1 °C 1039.2 hPa Calm     62 % 0 mm 28.0 W/m2 BKN
17:04 9.4 °C 2.5 °C 1039.2 hPa Calm     62 % 0 mm 21.0 W/m2 BKN
17:09 8.9 °C 2 °C 1039.2 hPa Calm     62 % 0 mm 18.0 W/m2 BKN
17:10 8.9 °C 2 °C 1039.2 hPa Calm     62 % 0 mm 16.0 W/m2 BKN
17:15 8.3 °C 1.7 °C 1039.2 hPa Calm     63 % 0 mm 14.0 W/m2 BKN
17:16 8.3 °C 1.7 °C 1039.2 hPa Calm     63 % 0 mm 12.0 W/m2 BKN
17:21 8.3 °C 1.7 °C 1039.2 hPa Calm     63 % 0 mm 11.0 W/m2 BKN
17:23 7.8 °C 1.2 °C 1039.2 hPa Calm     63 % 0 mm 11.0 W/m2 BKN
17:25 7.8 °C 1.4 °C 1039.2 hPa Calm     64 % 0 mm 9.0 W/m2 BKN
17:30 7.8 °C 1.8 °C 1039.2 hPa Calm     66 % 0 mm 7.0 W/m2 BKN
17:32 7.8 °C 2.1 °C 1039.2 hPa Calm     67 % 0 mm 5.0 W/m2 OVC
17:36 7.2 °C 1.5 °C 1039.2 hPa Calm     67 % 0 mm 0.0 W/m2 OVC
17:37 7.2 °C 1.5 °C 1039.2 hPa Calm     67 % 0 mm 0.0 W/m2 OVC
17:38 7.2 °C 1.5 °C 1039.2 hPa Calm     67 % 0 mm 0.0 W/m2 OVC
17:42 7.2 °C 1.3 °C 1039.2 hPa Calm     66 % 0 mm 0.0 W/m2 OVC
17:43 7.2 °C 1.5 °C 1039.2 hPa Calm     67 % 0 mm 0.0 W/m2 OVC
17:45 6.7 °C 0.9 °C 1039.2 hPa Calm     67 % 0 mm 0.0 W/m2 CLR
17:48 6.7 °C 0.9 °C 1039.2 hPa Calm     67 % 0 mm 0.0 W/m2 CLR
17:51 6.7 °C 0.8 °C 1039.2 hPa Calm     66 % 0 mm 0.0 W/m2 CLR
17:55 6.1 °C 0.2 °C 1039.2 hPa Calm     66 % 0 mm 0.0 W/m2 CLR
17:56 6.1 °C 0.4 °C 1039.2 hPa Calm     67 % 0 mm 0.0 W/m2 CLR
17:57 6.1 °C 0.4 °C 1039.2 hPa Calm     67 % 0 mm 0.0 W/m2 CLR
18:02 6.1 °C 0.4 °C 1039.5 hPa Calm     67 % 0 mm 0.0 W/m2 CLR
18:07 5.6 °C 0.3 °C 1039.5 hPa Calm     69 % 0 mm 0.0 W/m2 CLR
18:08 5.6 °C 0.3 °C 1039.5 hPa Calm     69 % 0 mm 0.0 W/m2 CLR
18:13 5.6 °C 0.7 °C 1039.2 hPa Calm     71 % 0 mm 0.0 W/m2 CLR
18:15 5.6 °C 0.7 °C 1039.2 hPa Calm     71 % 0 mm 0.0 W/m2 CLR
18:20 5 °C 0.4 °C 1039.2 hPa Calm     72 % 0 mm 0.0 W/m2 CLR
18:21 5 °C 0.4 °C 1039.2 hPa Calm     72 % 0 mm 0.0 W/m2 CLR
18:25 5 °C 0.2 °C 1039.5 hPa Calm     71 % 0 mm 0.0 W/m2 CLR
18:30 5 °C 0.4 °C 1039.5 hPa Calm     72 % 0 mm 0.0 W/m2 CLR
18:31 5 °C 0.4 °C 1039.5 hPa Calm     72 % 0 mm 0.0 W/m2 CLR
18:36 5 °C 0.6 °C 1039.5 hPa Calm     73 % 0 mm 0.0 W/m2 CLR
18:37 5 °C 0.6 °C 1039.5 hPa Calm     73 % 0 mm 0.0 W/m2 CLR
18:42 5 °C 0.7 °C 1039.5 hPa Calm     74 % 0 mm 0.0 W/m2 CLR
18:43 5 °C 0.7 °C 1039.5 hPa Calm     74 % 0 mm 0.0 W/m2 CLR
18:48 4.4 °C 0.2 °C 1039.5 hPa Calm     74 % 0 mm 0.0 W/m2 CLR
18:53 4.4 °C 0.6 °C 1039.5 hPa Calm     76 % 0 mm 0.0 W/m2 CLR
18:56 3.9 °C -0.2 °C 1039.5 hPa Calm     75 % 0 mm 0.0 W/m2 CLR
18:57 3.9 °C -0.2 °C 1039.5 hPa Calm     75 % 0 mm 0.0 W/m2 CLR
19:02 3.9 °C 0.1 °C 1039.5 hPa Calm     76 % 0 mm 0.0 W/m2 CLR
19:07 3.3 °C -0.3 °C 1039.5 hPa Calm     77 % 0 mm 0.0 W/m2 CLR
19:11 3.9 °C 0.4 °C 1039.5 hPa Calm     78 % 0 mm 0.0 W/m2 CLR
19:13 3.9 °C 0.4 °C 1039.5 hPa Calm     78 % 0 mm 0.0 W/m2 CLR
19:18 3.9 °C 0.4 °C 1039.5 hPa Calm     78 % 0 mm 0.0 W/m2 CLR
19:20 3.9 °C 0.6 °C 1039.5 hPa Calm     79 % 0 mm 0.0 W/m2 CLR
19:24 3.9 °C 0.6 °C 1039.5 hPa Calm     79 % 0 mm 0.0 W/m2 CLR
19:27 3.9 °C 0.6 °C 1039.5 hPa Calm     79 % 0 mm 0.0 W/m2 CLR
19:34 3.3 °C -0.2 °C 1039.5 hPa Calm     78 % 0 mm 0.0 W/m2 CLR
19:39 3.3 °C 0.1 °C 1039.5 hPa Calm     79 % 0 mm 0.0 W/m2 CLR
19:41 3.3 °C 0.1 °C 1039.8 hPa Calm     79 % 0 mm 0.0 W/m2 CLR
19:46 3.3 °C 0.2 °C 1039.8 hPa Calm     80 % 0 mm 0.0 W/m2 CLR
19:47 3.3 °C 0.2 °C 1039.8 hPa Calm     80 % 0 mm 0.0 W/m2 CLR
19:52 3.3 °C 0.2 °C 1039.5 hPa Calm     80 % 0 mm 0.0 W/m2 CLR
19:57 3.3 °C 0.2 °C 1039.8 hPa Calm     80 % 0 mm 0.0 W/m2 CLR
20:02 3.3 °C 0.2 °C 1039.8 hPa Calm     80 % 0 mm 0.0 W/m2 CLR
20:04 3.3 °C 0.2 °C 1039.8 hPa Calm     80 % 0 mm 0.0 W/m2 CLR
20:06 3.3 °C 0.2 °C 1039.8 hPa Calm     80 % 0 mm 0.0 W/m2 CLR
20:09 3.9 °C 0.9 °C 1039.8 hPa Calm     81 % 0 mm 0.0 W/m2 CLR
20:12 3.9 °C 1.1 °C 1039.8 hPa Calm     82 % 0 mm 0.0 W/m2 CLR
20:14 3.9 °C 1.1 °C 1040.2 hPa Calm     82 % 0 mm 0.0 W/m2 CLR
20:18 3.3 °C 0.6 °C 1040.2 hPa Calm     82 % 0 mm 0.0 W/m2 CLR
20:21 3.3 °C 0.6 °C 1040.2 hPa Calm     82 % 0 mm 0.0 W/m2 CLR
20:26 3.3 °C 0.6 °C 1039.8 hPa Calm     82 % 0 mm 0.0 W/m2 CLR
20:27 3.3 °C 0.6 °C 1039.8 hPa Calm     82 % 0 mm 0.0 W/m2 CLR
20:32 3.3 °C 0.6 °C 1039.8 hPa Calm     82 % 0 mm 0.0 W/m2 CLR
20:37 3.3 °C 0.6 °C 1039.8 hPa Calm     82 % 0 mm 0.0 W/m2 CLR
20:42 3.3 °C 0.6 °C 1039.8 hPa Calm     82 % 0 mm 0.0 W/m2 CLR
20:43 3.3 °C 0.6 °C 1039.8 hPa Calm     82 % 0 mm 0.0 W/m2 CLR
20:48 3.3 °C 0.6 °C 1039.8 hPa Calm     82 % 0 mm 0.0 W/m2 CLR
20:50 3.3 °C 0.6 °C 1040.2 hPa Calm     82 % 0 mm 0.0 W/m2 CLR
20:51 2.8 °C 0.2 °C 1039.8 hPa Calm     83 % 0 mm 0.0 W/m2 CLR
20:56 2.8 °C 0.2 °C 1039.8 hPa Calm     83 % 0 mm 0.0 W/m2 CLR
20:58 2.8 °C 0.2 °C 1039.8 hPa Calm     83 % 0 mm 0.0 W/m2 CLR
21:07 2.8 °C 0.3 °C 1039.8 hPa Calm     84 % 0 mm 0.0 W/m2 CLR
21:09 2.2 °C -0.2 °C 1039.8 hPa Calm     84 % 0 mm 0.0 W/m2 CLR
21:14 2.2 °C -0.2 °C 1039.8 hPa Calm     84 % 0 mm 0.0 W/m2 CLR
21:15 2.2 °C -0.2 °C 1039.8 hPa Calm     84 % 0 mm 0.0 W/m2 CLR
21:20 2.2 °C -0.2 °C 1040.2 hPa Calm     84 % 0 mm 0.0 W/m2 CLR
21:24 2.2 °C -0.2 °C 1040.2 hPa Calm     84 % 0 mm 0.0 W/m2 CLR
21:26 2.2 °C -0.2 °C 1040.2 hPa Calm     84 % 0 mm 0.0 W/m2 CLR
21:29 2.2 °C -0.4 °C 1040.2 hPa Calm     83 % 0 mm 0.0 W/m2 CLR
21:33 2.8 °C 0.2 °C 1040.2 hPa Calm     83 % 0 mm 0.0 W/m2 CLR
21:36 2.8 °C 0.2 °C 1040.2 hPa Calm     83 % 0 mm 0.0 W/m2 CLR
21:39 2.8 °C 0.2 °C 1040.2 hPa Calm     83 % 0 mm 0.0 W/m2 CLR
21:43 2.2 °C -0.2 °C 1040.2 hPa Calm     84 % 0 mm 0.0 W/m2 CLR
21:44 2.2 °C -0.4 °C 1040.2 hPa Calm     83 % 0 mm 0.0 W/m2 CLR
21:49 2.2 °C -0.4 °C 1040.2 hPa Calm     83 % 0 mm 0.0 W/m2 CLR
21:50 2.2 °C -0.4 °C 1040.2 hPa Calm     83 % 0 mm 0.0 W/m2 CLR
21:55 2.2 °C -0.7 °C 1040.2 hPa Calm     81 % 0 mm 0.0 W/m2 CLR
22:00 2.2 °C -0.6 °C 1040.2 hPa Calm     82 % 0 mm 0.0 W/m2 CLR
22:02 2.2 °C -0.4 °C 1040.2 hPa Calm     83 % 0 mm 0.0 W/m2 CLR
22:05 2.2 °C -0.2 °C 1040.2 hPa Calm     84 % 0 mm 0.0 W/m2 CLR
22:07 2.2 °C -0.2 °C 1040.2 hPa Calm     84 % 0 mm 0.0 W/m2 CLR
22:13 2.2 °C -0.1 °C 1040.2 hPa Calm     85 % 0 mm 0.0 W/m2 CLR
22:19 2.2 °C -0.1 °C 1040.2 hPa Calm     85 % 0 mm 0.0 W/m2 CLR
22:24 2.2 °C -0.2 °C 1039.8 hPa Calm     84 % 0 mm 0.0 W/m2 CLR
22:29 2.2 °C -0.2 °C 1039.8 hPa Calm     84 % 0 mm 0.0 W/m2 CLR
22:32 2.2 °C -0.2 °C 1039.8 hPa Calm     84 % 0 mm 0.0 W/m2 CLR
22:37 2.2 °C -0.2 °C 1039.8 hPa Calm     84 % 0 mm 0.0 W/m2 CLR
22:40 1.7 °C -0.6 °C 1039.8 hPa Calm     85 % 0 mm 0.0 W/m2 CLR
22:43 1.7 °C -0.6 °C 1039.8 hPa Calm     85 % 0 mm 0.0 W/m2 CLR
22:48 1.7 °C -0.6 °C 1039.8 hPa Calm     85 % 0 mm 0.0 W/m2 CLR
22:50 1.7 °C -0.6 °C 1039.8 hPa Calm     85 % 0 mm 0.0 W/m2 CLR
22:55 1.7 °C -0.6 °C 1039.8 hPa Calm     85 % 0 mm 0.0 W/m2 CLR
22:56 1.7 °C -0.6 °C 1039.8 hPa Calm     85 % 0 mm 0.0 W/m2 CLR
23:01 1.7 °C -0.6 °C 1039.8 hPa Calm     85 % 0 mm 0.0 W/m2 CLR
23:06 1.7 °C -0.6 °C 1039.8 hPa Calm     85 % 0 mm 0.0 W/m2 CLR
23:09 1.7 °C -0.6 °C 1040.2 hPa Calm     85 % 0 mm 0.0 W/m2 CLR
23:11 1.7 °C -0.6 °C 1039.8 hPa Calm     85 % 0 mm 0.0 W/m2 CLR
23:14 1.1 °C -1.1 °C 1040.2 hPa Calm     85 % 0 mm 0.0 W/m2 CLR
23:16 1.1 °C -1.1 °C 1040.2 hPa Calm     85 % 0 mm 0.0 W/m2 CLR
23:21 1.1 °C -1.1 °C 1040.2 hPa Calm     85 % 0 mm 0.0 W/m2 CLR
23:26 1.1 °C -0.9 °C 1040.2 hPa Calm     86 % 0 mm 0.0 W/m2 CLR
23:27 1.1 °C -0.9 °C 1040.2 hPa Calm     86 % 0 mm 0.0 W/m2 CLR
23:29 1.1 °C -0.9 °C 1040.2 hPa Calm     86 % 0 mm 0.0 W/m2 CLR
23:32 1.1 °C -1.1 °C 1040.2 hPa Calm     85 % 0 mm 0.0 W/m2 CLR
23:37 1.1 °C -0.9 °C 1040.2 hPa Calm     86 % 0 mm 0.0 W/m2 CLR
23:38 1.1 °C -0.9 °C 1040.2 hPa Calm     86 % 0 mm 0.0 W/m2 CLR
23:39 1.1 °C -0.9 °C 1040.2 hPa Calm     86 % 0 mm 0.0 W/m2 CLR
23:44 1.1 °C -0.9 °C 1040.2 hPa Calm     86 % 0 mm 0.0 W/m2 CLR
23:49 1.1 °C -0.9 °C 1040.2 hPa Calm     86 % 0 mm 0.0 W/m2 CLR
23:54 1.1 °C -0.9 °C 1040.2 hPa Calm     86 % 0 mm 0.0 W/m2 CLR
23:56 1.1 °C -0.8 °C 1040.2 hPa Calm     87 % 0 mm 0.0 W/m2 CLR
Lo Temps de Massalio
Compliments of Weather Underground - 1.75 mb